Stations météo

réclame
Mon MeteoGroup
Hemavan-Skorvfjallet, Suède (2103): Température de l'air & dewpoint: 19.05.2018 12:00:00 - 25.05.2018 12:00:00 (CEST)Hemavan-Skorvfjallet, Suède (2103): Vitesse du vent & gusts: 19.05.2018 12:00:00 - 25.05.2018 12:00:00 (CEST)Hemavan-Skorvfjallet, Suède (2103): Direction du vent: 19.05.2018 12:00:00 - 25.05.2018 12:00:00 (CEST)
Date & Time tt [°C] td [°C] ff [km/h] ff [knt] fx [km/h] fx [knt] dd
25.05.2018 12:00:00 13,4 -1,0 17 9 36 19 W
25.05.2018 11:00:00 12,6 -1,4 22 12 38 20 W
25.05.2018 10:00:00 11,3 0,1 24 13 41 22 W
25.05.2018 09:00:00 11,1 -0,7 18 10 40 22 W
25.05.2018 08:00:00 9,9 -1,8 25 14 41 22 WSW
25.05.2018 07:00:00 8,9 -2,7 23 13 34 18 W
25.05.2018 06:00:00 7,8 -2,5 19 11 32 18 W
25.05.2018 05:00:00 8,2 -1,9 26 14 33 18 WSW
25.05.2018 04:00:00 8,2 -1,9 7 4 16 9 W
25.05.2018 03:00:00 9,1 -1,3 6 3 14 8 WSW
25.05.2018 02:00:00 9,0 -1,7 10 6 16 9 WSW
25.05.2018 01:00:00 9,2 -2,7 13 7 20 11 WSW
25.05.2018 00:00:00 9,4 -2,6 17 9 28 15 WSW
24.05.2018 23:00:00 9,8 -2,8 14 7 27 15 W
24.05.2018 22:00:00 11,3 -0,5 10 6 21 11 WSW
24.05.2018 21:00:00 13,6 -2,4 13 7 24 13 W
24.05.2018 20:00:00 14,5 -2,9 19 10 28 15 W
24.05.2018 19:00:00 15,3 -2,6 17 9 28 15 WSW
24.05.2018 18:00:00 16,0 -3,0 15 8 23 12 W
24.05.2018 17:00:00 15,3 -4,1 13 7 23 13 W
24.05.2018 16:00:00 15,8 -5,3 13 7 20 11 W
24.05.2018 15:00:00 14,8 -5,1 9 5 25 14 W
24.05.2018 14:00:00 14,2 -4,5 10 5 22 12 WSW
24.05.2018 13:00:00 12,9 -3,8 6 3 17 9 S
24.05.2018 12:00:00 10,6 -5,0 8 4 18 10 SE
24.05.2018 11:00:00 9,6 -5,5 4 2 15 8 ESE
24.05.2018 10:00:00 8,1 -6,5 8 5 18 10 ESE
24.05.2018 09:00:00 6,8 -3,2 10 5 14 8 ESE
24.05.2018 08:00:00 5,5 -3,6 11 6 20 11 ESE
24.05.2018 07:00:00 5,8 -3,3 13 7 18 10 ESE
24.05.2018 06:00:00 4,6 -3,4 11 6 15 8 SE
24.05.2018 05:00:00 3,9 -4,1 13 7 14 8 ESE
24.05.2018 04:00:00 3,9 -4,3 9 5 11 6 ESE
24.05.2018 03:00:00 4,1 -4,6 9 5 15 8 ESE
24.05.2018 02:00:00 4,6 -4,2 7 4 8 5 ESE
24.05.2018 01:00:00 4,7 -4,8 3 1 7 4 NE
24.05.2018 00:00:00 4,4 -4,6 7 4 9 5 NNW
23.05.2018 23:00:00 4,8 -5,3 5 3 10 6 NW
23.05.2018 22:00:00 4,7 -4,1 9 5 14 8 WNW
23.05.2018 21:00:00 6,1 -3,8 12 7 17 9 NW
23.05.2018 20:00:00 6,6 -3,6 12 7 32 18 NNW
23.05.2018 19:00:00 7,9 -3,3 13 7 24 13 NW
23.05.2018 18:00:00 8,1 -3,4 13 7 32 17 WNW
23.05.2018 17:00:00 7,9 -3,9 16 9 29 16 WNW
23.05.2018 16:00:00 8,0 -3,8 13 7 30 16 NW
23.05.2018 15:00:00 7,9 -4,2 16 9 26 14 W
23.05.2018 14:00:00 6,8 -4,3 11 6 29 16 WNW
23.05.2018 13:00:00 6,5 -3,2 16 8 31 17 W
23.05.2018 12:00:00 5,5 -2,8 10 5 24 13 WNW
23.05.2018 11:00:00 4,5 -2,6 15 8 25 14 WNW
23.05.2018 10:00:00 3,7 -2,7 14 8 26 14 NW
23.05.2018 09:00:00 2,9 -2,2 14 8 27 15 WNW
23.05.2018 08:00:00 2,3 -2,6 19 10 29 16 NNW
23.05.2018 07:00:00 1,3 -2,6 19 10 28 15 NW
23.05.2018 06:00:00 0,7 -2,4 15 8 21 12 NW
23.05.2018 05:00:00 -0,5 -2,4 11 6 17 9 W
23.05.2018 04:00:00 -0,8 -2,8 7 4 13 7 WNW
23.05.2018 03:00:00 -0,5 -2,7 11 6 19 10 WNW
23.05.2018 02:00:00 0,2 -1,7 10 6 27 15 NW
23.05.2018 01:00:00 0,2 -2,0 22 12 32 18 NNW
23.05.2018 00:00:00 0,5 -2,5 19 10 28 15 NW
22.05.2018 23:00:00 0,5 -2,7 23 12 36 19 NNW
22.05.2018 22:00:00 1,8 -2,7 26 14 39 21 NW
22.05.2018 21:00:00 2,9 -3,0 29 16 48 26 NW
22.05.2018 20:00:00 3,9 -1,7 30 16 46 25 WNW
22.05.2018 19:00:00 4,7 -0,7 29 16 39 21 NW
22.05.2018 18:00:00 4,3 0,4 24 13 40 21 NW
22.05.2018 17:00:00 3,6 1,8 26 14 43 23 NW
22.05.2018 16:00:00 4,4 3,2 26 14 36 19 WNW
22.05.2018 15:00:00 5,9 3,9 27 15 42 23 W
22.05.2018 14:00:00 8,1 4,1 30 16 44 24 W
22.05.2018 13:00:00 10,7 4,4 27 15 41 22 W
22.05.2018 12:00:00 11,9 3,4 25 14 40 22 W
22.05.2018 11:00:00 11,3 3,8 23 13 32 18 W
22.05.2018 10:00:00 10,8 4,5 11 6 15 8 WNW
22.05.2018 09:00:00 10,6 4,7 5 3 10 5 W
22.05.2018 08:00:00 8,2 3,5 8 4 17 9 SE
22.05.2018 07:00:00 7,0 3,4 14 8 20 11 ESE
22.05.2018 06:00:00 6,3 3,5 10 6 14 7 ESE
22.05.2018 05:00:00 7,3 3,2 7 4 10 5 SE
22.05.2018 04:00:00 7,7 3,4 7 4 18 10 ESE
22.05.2018 03:00:00 5,8 4,0 16 8 21 11 ESE
22.05.2018 02:00:00 7,6 3,6 3 2 5 3 NE
22.05.2018 01:00:00 6,9 3,9 1 1 8 4 S
22.05.2018 00:00:00 6,5 4,2 6 3 8 5 E
21.05.2018 23:00:00 6,7 4,4 3 2 16 9 NNW
21.05.2018 22:00:00 7,0 4,1 8 4 16 9 WNW
21.05.2018 21:00:00 6,7 4,4 10 5 22 12 WSW
21.05.2018 20:00:00 8,2 5,0 18 10 29 16 WSW
21.05.2018 19:00:00 8,0 5,1 11 6 37 20 W
21.05.2018 18:00:00 7,0 5,1 31 17 45 24 WSW
21.05.2018 17:00:00 7,1 5,2 25 13 40 22 WSW
21.05.2018 16:00:00 7,0 5,1 35 19 46 25 WSW
21.05.2018 15:00:00 7,0 5,1 30 16 51 28 WSW
21.05.2018 14:00:00 6,8 5,3 29 16 49 26 WSW
21.05.2018 13:00:00 6,9 5,4 44 24 64 35 WSW
21.05.2018 12:00:00 6,4 5,4 42 23 53 29 WSW
21.05.2018 11:00:00 6,6 5,1 38 20 51 27 WSW
21.05.2018 10:00:00 6,3 4,8 37 20 49 26 WSW
21.05.2018 09:00:00 5,9 4,7 17 9 41 22 WSW
21.05.2018 08:00:00 6,3 4,3 23 13 57 31 WSW
21.05.2018 07:00:00 6,6 3,9 41 22 66 36 W
21.05.2018 06:00:00 6,7 3,7 44 24 61 33 WSW
21.05.2018 05:00:00 6,8 3,6 45 24 61 33 WSW
21.05.2018 04:00:00 6,8 3,2 41 22 56 31 WSW
21.05.2018 03:00:00 6,3 2,9 36 19 52 28 WSW
21.05.2018 02:00:00 6,4 3,0 35 19 46 25 WSW
21.05.2018 01:00:00 6,3 3,6 39 21 50 27 WSW
21.05.2018 00:00:00 6,2 4,0 36 19 53 29 WSW
20.05.2018 23:00:00 6,6 3,4 27 14 54 29 W
20.05.2018 22:00:00 7,5 2,0 23 13 36 19 W
20.05.2018 21:00:00 8,2 1,8 22 12 34 18 WSW
20.05.2018 20:00:00 8,0 2,2 24 13 46 25 SW
20.05.2018 19:00:00 8,3 2,3 22 12 45 25 W
20.05.2018 18:00:00 7,5 3,4 42 23 66 36 SW
20.05.2018 17:00:00 9,0 2,1 49 26 64 35 W
20.05.2018 16:00:00 12,2 0,3 33 18 51 28 WSW
20.05.2018 15:00:00 12,7 0,4 35 19 51 28 SSW
20.05.2018 14:00:00 12,6 0,7 28 15 41 22 SSW
20.05.2018 13:00:00 11,7 1,9 22 12 42 23 S
20.05.2018 12:00:00 10,4 2,7 26 14 42 23 S
20.05.2018 11:00:00 10,0 3,1 22 12 32 17 S
20.05.2018 10:00:00 8,7 3,7 18 10 28 15 SE
20.05.2018 09:00:00 7,3 3,7 16 8 21 12 SE
20.05.2018 08:00:00 5,3 4,1 12 6 16 9 SE
20.05.2018 07:00:00 4,8 3,8 13 7 18 10 SSE
20.05.2018 06:00:00 4,3 4,0 9 5 12 7 SE
20.05.2018 05:00:00 4,1 4,1 9 5 13 7 SSW
20.05.2018 04:00:00 4,2 4,2 9 5 21 12 WSW
20.05.2018 03:00:00 4,1 4,1 16 9 24 13 SW
20.05.2018 02:00:00 3,9 3,9 15 8 27 15 SW
20.05.2018 01:00:00 3,9 3,9 25 13 31 17 SW
20.05.2018 00:00:00 3,6 3,6 10 6 15 8 SW
19.05.2018 23:00:00 3,1 3,1 10 6 16 8 W
19.05.2018 22:00:00 3,1 3,1 11 6 28 15 WSW
19.05.2018 21:00:00 3,2 3,1 18 10 31 17 W
19.05.2018 20:00:00 3,6 3,6 14 8 26 14 W
19.05.2018 19:00:00 3,2 3,2 12 7 26 14 NW
19.05.2018 18:00:00 3,6 3,6 10 6 28 15 NW
19.05.2018 17:00:00 3,9 3,8 17 9 43 23 W
19.05.2018 16:00:00 4,5 3,8 30 16 41 22 WSW
19.05.2018 15:00:00 4,5 3,5 36 19 44 24 SW
19.05.2018 14:00:00 5,8 2,6 32 18 48 26 WSW
19.05.2018 13:00:00 4,9 0,8 25 14 40 22 WSW
19.05.2018 12:00:00 5,5 -0,1 27 15 42 23 WSW

tt = Température de l'air
td = dewpoint
ff = Vitesse du vent
fx = gusts
dd = Direction du vent

stations d'obs. à proximité